Terminal Aerodrome Forecast
Issued by NWS

Home | Current Version | Previous Version | Text Only | Print | Product List | Glossary On
Versions: 1 2 3 4 5 6 7 8 9 10 11 12 13 14 15 16 17
000
FTUS43 KICT 301120
TAFHUT
TAF
KHUT 301120Z 3012/3112 35016G23KT P6SM BKN015 OVC025
      TEMPO 3012/3014 SCT015 BKN025
     FM301500 35015G23KT P6SM SCT020 BKN035
     FM301900 36011KT P6SM SCT070
     FM310200 02005KT P6SM SKC=

USA.gov is the U.S. government's official web portal to all federal, state and local government web resources and services.